createdAt,value
2017-12-26T00:00:09.959Z,99770.53
2017-12-26T00:02:37.539Z,99772.94
2017-12-26T00:05:05.255Z,99772.94
2017-12-26T00:07:32.832Z,99768.47
2017-12-26T00:10:00.630Z,99764.41
2017-12-26T00:12:28.451Z,99765.11
2017-12-26T00:14:56.053Z,99769.17
2017-12-26T00:17:23.646Z,99771.30
2017-12-26T00:19:51.294Z,99768.03
2017-12-26T00:22:18.866Z,99775.11
2017-12-26T00:24:46.430Z,99773.12
2017-12-26T00:27:13.993Z,99776.53
2017-12-26T00:29:41.566Z,99777.52
2017-12-26T00:32:09.391Z,99778.54
2017-12-26T00:34:36.954Z,99778.87
2017-12-26T00:37:04.648Z,99782.17
2017-12-26T00:39:32.219Z,99774.03
2017-12-26T00:41:59.966Z,99762.17
2017-12-26T00:44:27.535Z,99775.31
2017-12-26T00:46:55.109Z,99779.52
2017-12-26T00:49:22.686Z,99774.91
2017-12-26T00:51:50.326Z,99771.80
2017-12-26T00:54:18.152Z,99767.17
2017-12-26T00:56:45.711Z,99771.14
2017-12-26T00:59:13.282Z,99765.02
2017-12-26T01:01:41.058Z,99769.16
2017-12-26T01:04:08.794Z,99768.86
2017-12-26T01:06:36.350Z,99762.84
2017-12-26T01:09:04.053Z,99765.33
2017-12-26T01:11:31.617Z,99756.16
2017-12-26T01:13:59.177Z,99760.06
2017-12-26T01:16:26.746Z,99756.16
2017-12-26T01:18:54.516Z,99757.80
2017-12-26T01:21:22.163Z,99756.05
2017-12-26T01:23:49.968Z,99757.59
2017-12-26T01:26:17.522Z,99757.48
2017-12-26T01:28:45.304Z,99748.15
2017-12-26T01:31:12.883Z,99746.69
2017-12-26T01:33:40.441Z,99745.83
2017-12-26T01:36:08.130Z,99748.75
2017-12-26T01:38:35.705Z,99746.69
2017-12-26T01:41:03.494Z,99735.53
2017-12-26T01:43:31.103Z,99741.20
2017-12-26T01:46:08.464Z,99726.80
2017-12-26T01:48:36.018Z,99725.02
2017-12-26T01:51:03.634Z,99725.14
2017-12-26T01:53:31.193Z,99721.00
2017-12-26T01:55:58.907Z,99722.77
2017-12-26T01:58:26.627Z,99724.81
2017-12-26T02:00:55.161Z,99722.38
2017-12-26T02:03:22.778Z,99718.22
2017-12-26T02:05:50.335Z,99719.81
2017-12-26T02:08:17.906Z,99712.92
2017-12-26T02:10:45.646Z,99707.52
2017-12-26T02:13:13.267Z,99702.81
2017-12-26T02:15:41.083Z,99703.92
2017-12-26T02:18:08.638Z,99703.37
2017-12-26T02:20:36.203Z,99690.84
2017-12-26T02:23:04.038Z,99685.20
2017-12-26T02:25:31.597Z,99689.95
2017-12-26T02:27:59.206Z,99688.41
2017-12-26T02:30:26.775Z,99680.66
2017-12-26T02:32:54.475Z,99673.52
2017-12-26T02:35:22.192Z,99678.06
2017-12-26T02:37:49.908Z,99670.56
2017-12-26T02:40:18.548Z,99666.55
2017-12-26T02:42:46.102Z,99660.44
2017-12-26T02:45:13.901Z,99664.17
2017-12-26T02:47:41.512Z,99664.66
2017-12-26T02:50:09.078Z,99656.68
2017-12-26T02:52:36.956Z,99656.42
2017-12-26T02:55:04.518Z,99658.44
2017-12-26T02:57:32.088Z,99658.20
2017-12-26T02:59:59.700Z,99662.09
2017-12-26T03:02:27.259Z,99658.52
2017-12-26T03:04:54.874Z,99656.76
2017-12-26T03:07:22.663Z,99655.30
2017-12-26T03:09:50.226Z,99658.55
2017-12-26T03:12:17.794Z,99661.18
2017-12-26T03:14:45.351Z,99656.63
2017-12-26T03:17:13.078Z,99642.87
2017-12-26T03:19:40.631Z,99648.65
2017-12-26T03:22:08.370Z,99643.71
2017-12-26T03:24:35.937Z,99642.01
2017-12-26T03:27:03.530Z,99639.67
2017-12-26T03:29:31.153Z,99641.25
2017-12-26T03:31:58.710Z,99630.52
2017-12-26T03:34:26.266Z,99635.63
2017-12-26T03:36:54.078Z,99631.91
2017-12-26T03:39:21.646Z,99629.48
2017-12-26T03:41:49.258Z,99632.44
2017-12-26T03:44:16.814Z,99622.92
2017-12-26T03:46:44.369Z,99625.06
2017-12-26T03:49:11.938Z,99624.29
2017-12-26T03:51:39.784Z,99616.55
2017-12-26T03:54:07.436Z,99617.50
2017-12-26T03:56:34.998Z,99625.39
2017-12-26T03:59:02.553Z,99624.75
2017-12-26T04:01:30.355Z,99624.22
2017-12-26T04:03:58.174Z,99619.35
2017-12-26T04:06:25.789Z,99614.45
2017-12-26T04:08:53.581Z,99617.80
2017-12-26T04:11:21.299Z,99619.03
2017-12-26T04:13:48.869Z,99611.28
2017-12-26T04:16:16.425Z,99614.23
2017-12-26T04:18:44.035Z,99611.28
2017-12-26T04:21:11.691Z,99605.44
2017-12-26T04:23:39.501Z,99608.56
2017-12-26T04:26:07.218Z,99604.45
2017-12-26T04:28:34.893Z,99603.18
2017-12-26T04:31:02.483Z,99600.33
2017-12-26T04:33:30.040Z,99593.98
2017-12-26T04:35:57.598Z,99595.70
2017-12-26T04:38:25.166Z,99592.40
2017-12-26T04:40:52.724Z,99591.63
2017-12-26T04:43:20.561Z,99588.86
2017-12-26T04:45:48.130Z,99586.12
2017-12-26T04:48:15.862Z,99584.31
2017-12-26T04:50:43.429Z,99591.25
2017-12-26T04:53:10.982Z,99596.01
2017-12-26T04:55:38.590Z,99594.77
2017-12-26T04:58:06.154Z,99584.00
2017-12-26T05:00:33.710Z,99573.58
2017-12-26T05:03:01.504Z,99581.92
2017-12-26T05:05:29.054Z,99572.13
2017-12-26T05:07:56.663Z,99575.16
2017-12-26T05:10:24.457Z,99571.08
2017-12-26T05:12:51.999Z,99574.24
2017-12-26T05:15:19.566Z,99569.44
2017-12-26T05:17:47.134Z,99567.97
2017-12-26T05:20:14.768Z,99575.15
2017-12-26T05:22:42.338Z,99574.37
2017-12-26T05:25:09.906Z,99576.61
2017-12-26T05:27:37.646Z,99577.53
2017-12-26T05:30:05.212Z,99577.27
2017-12-26T05:32:33.021Z,99576.39
2017-12-26T05:35:00.594Z,99573.47
2017-12-26T05:37:28.253Z,99568.38
2017-12-26T05:39:55.822Z,99568.48
2017-12-26T05:42:23.363Z,99570.74
2017-12-26T05:44:51.182Z,99556.36
2017-12-26T05:47:18.766Z,99560.78
2017-12-26T05:49:46.322Z,99552.36
2017-12-26T05:52:14.032Z,99551.58
2017-12-26T05:54:41.591Z,99552.23
2017-12-26T05:57:09.198Z,99548.89
2017-12-26T05:59:36.759Z,99553.14
2017-12-26T06:02:04.529Z,99554.28
2017-12-26T06:04:32.249Z,99555.75
2017-12-26T06:06:59.806Z,99548.75
2017-12-26T06:09:27.583Z,99546.45
2017-12-26T06:11:55.301Z,99549.84
2017-12-26T06:14:22.859Z,99557.15
2017-12-26T06:16:50.430Z,99552.11
2017-12-26T06:19:18.155Z,99543.36
2017-12-26T06:21:45.766Z,99535.00
2017-12-26T06:24:13.330Z,99536.80
2017-12-26T06:26:40.890Z,99537.11
2017-12-26T06:29:08.598Z,99532.91
2017-12-26T06:31:36.223Z,99536.84
2017-12-26T06:34:03.896Z,99531.07
2017-12-26T06:36:31.681Z,99536.61
2017-12-26T06:38:59.242Z,99535.86
2017-12-26T06:41:26.820Z,99528.97
2017-12-26T06:43:54.383Z,99527.07
2017-12-26T06:46:22.151Z,99527.33
2017-12-26T06:48:49.742Z,99524.90
2017-12-26T06:51:17.303Z,99525.92
2017-12-26T06:53:44.871Z,99509.04
2017-12-26T06:56:12.426Z,99521.91
2017-12-26T06:58:40.342Z,99523.50
2017-12-26T07:01:07.898Z,99527.55
2017-12-26T07:03:35.678Z,99522.53
2017-12-26T07:06:03.255Z,99512.05
2017-12-26T07:08:30.824Z,99526.51
2017-12-26T07:10:58.434Z,99523.61
2017-12-26T07:13:25.990Z,99527.09
2017-12-26T07:15:53.531Z,99517.41
2017-12-26T07:18:21.162Z,99513.91
2017-12-26T07:20:54.190Z,99512.45
2017-12-26T07:23:21.830Z,99503.33
2017-12-26T07:25:49.398Z,99502.45
2017-12-26T07:28:17.139Z,99501.30
2017-12-26T07:30:44.852Z,99497.37
2017-12-26T07:33:12.612Z,99492.48
2017-12-26T07:35:40.191Z,99488.27
2017-12-26T07:38:07.951Z,99498.09
2017-12-26T07:40:35.547Z,99493.83
2017-12-26T07:43:03.260Z,99489.78
2017-12-26T07:45:30.883Z,99491.98
2017-12-26T07:47:58.454Z,99497.55
2017-12-26T07:50:26.024Z,99488.52
2017-12-26T07:52:53.906Z,99488.50
2017-12-26T07:55:21.593Z,99489.61
2017-12-26T07:57:49.218Z,99480.02
2017-12-26T08:00:16.833Z,99480.05
2017-12-26T08:02:44.405Z,99481.38
2017-12-26T08:05:12.036Z,99474.52
2017-12-26T08:07:39.656Z,99481.76
2017-12-26T08:10:07.386Z,99476.41
2017-12-26T08:12:35.199Z,99471.16
2017-12-26T08:15:03.027Z,99471.76
2017-12-26T08:17:30.627Z,99465.69
2017-12-26T08:19:58.189Z,99470.57
2017-12-26T08:22:25.760Z,99458.86
2017-12-26T08:24:53.338Z,99463.90
2017-12-26T08:27:20.902Z,99459.23
2017-12-26T08:29:48.590Z,99453.23
2017-12-26T08:32:16.211Z,99454.48
2017-12-26T08:34:43.830Z,99454.91
2017-12-26T08:37:11.477Z,99454.64
2017-12-26T08:39:39.107Z,99451.75
2017-12-26T08:42:06.741Z,99447.19
2017-12-26T08:44:34.362Z,99440.20
2017-12-26T08:47:01.978Z,99439.37
2017-12-26T08:49:29.565Z,99437.98
2017-12-26T08:51:57.204Z,99434.55
2017-12-26T08:54:24.823Z,99429.52
2017-12-26T08:56:52.390Z,99426.75
2017-12-26T08:59:20.015Z,99423.47
2017-12-26T09:01:47.590Z,99428.94
2017-12-26T09:04:15.151Z,99423.79
2017-12-26T09:06:42.774Z,99410.84
2017-12-26T09:09:10.345Z,99412.00
2017-12-26T09:11:37.921Z,99415.44
2017-12-26T09:14:05.498Z,99403.28
2017-12-26T09:16:33.074Z,99402.84
2017-12-26T09:19:00.707Z,99402.98
2017-12-26T09:21:28.274Z,99391.00
2017-12-26T09:23:56.005Z,99398.31
2017-12-26T09:26:23.583Z,99390.34
2017-12-26T09:28:51.156Z,99388.51
2017-12-26T09:31:18.835Z,99382.81
2017-12-26T09:33:46.467Z,99374.91
2017-12-26T09:36:14.041Z,99367.41
2017-12-26T09:38:41.727Z,99367.11
2017-12-26T09:41:09.351Z,99343.52
2017-12-26T09:43:36.955Z,99349.28
2017-12-26T09:46:04.535Z,99347.05
2017-12-26T09:48:32.095Z,99340.85
2017-12-26T09:50:59.672Z,99342.87
2017-12-26T09:53:27.323Z,99330.25
2017-12-26T09:55:55.021Z,99332.27
2017-12-26T09:58:22.583Z,99327.13
2017-12-26T10:00:50.207Z,99320.96
2017-12-26T10:03:17.782Z,99318.58
2017-12-26T10:05:45.357Z,99306.98
2017-12-26T10:08:13.062Z,99300.73
2017-12-26T10:10:40.699Z,99302.98
2017-12-26T10:13:08.321Z,99286.91
2017-12-26T10:15:35.951Z,99282.55
2017-12-26T10:18:03.541Z,99283.25
2017-12-26T10:20:31.176Z,99276.97
2017-12-26T10:22:58.754Z,99269.72
2017-12-26T10:25:26.324Z,99268.28
2017-12-26T10:27:53.918Z,99264.20
2017-12-26T10:30:21.591Z,99247.69
2017-12-26T10:32:49.235Z,99252.08
2017-12-26T10:35:17.111Z,99249.21
2017-12-26T10:37:44.755Z,99252.77
2017-12-26T10:40:12.621Z,99244.55
2017-12-26T10:42:40.306Z,99253.22
2017-12-26T10:45:07.994Z,99240.05
2017-12-26T10:47:35.564Z,99234.34
2017-12-26T10:50:03.156Z,99228.45
2017-12-26T10:52:30.735Z,99219.44
2017-12-26T10:54:58.364Z,99223.59
2017-12-26T10:57:25.996Z,99216.82
2017-12-26T10:59:53.545Z,99211.36
2017-12-26T11:02:21.115Z,99204.92
2017-12-26T11:04:48.708Z,99199.98
2017-12-26T11:07:16.283Z,99204.95
2017-12-26T11:09:43.915Z,99205.85
2017-12-26T11:12:11.492Z,99202.31
2017-12-26T11:14:39.059Z,99201.39
2017-12-26T11:17:06.715Z,99199.64
2017-12-26T11:19:34.279Z,99190.87
2017-12-26T11:22:02.000Z,99182.62
2017-12-26T11:24:29.575Z,99192.19
2017-12-26T11:26:57.135Z,99185.40
2017-12-26T11:29:24.706Z,99169.11
2017-12-26T11:31:52.345Z,99166.30
2017-12-26T11:34:20.024Z,99165.54
2017-12-26T11:36:47.560Z,99151.91
2017-12-26T11:39:15.187Z,99148.13
2017-12-26T11:41:42.827Z,99142.86
2017-12-26T11:44:10.437Z,99134.67
2017-12-26T11:46:38.055Z,99128.94
2017-12-26T11:49:05.627Z,99124.25
2017-12-26T11:51:33.260Z,99118.87
2017-12-26T11:54:00.821Z,99124.03
2017-12-26T11:56:28.421Z,99123.04
2017-12-26T11:58:56.124Z,99123.80
2017-12-26T12:01:23.733Z,99122.05
2017-12-26T12:03:51.312Z,99116.02
2017-12-26T12:06:18.969Z,99109.59
2017-12-26T12:08:46.534Z,99106.14
2017-12-26T12:11:14.147Z,99105.12
2017-12-26T12:13:41.715Z,99101.53
2017-12-26T12:16:09.283Z,99101.32
2017-12-26T12:18:36.859Z,99100.83
2017-12-26T12:21:04.423Z,99094.66
2017-12-26T12:23:32.059Z,99091.46
2017-12-26T12:25:59.637Z,99092.76
2017-12-26T12:28:27.210Z,99090.70
2017-12-26T12:30:55.076Z,99086.77
2017-12-26T12:33:22.716Z,99078.67
2017-12-26T12:35:50.402Z,99082.84
2017-12-26T12:38:18.036Z,99082.58
2017-12-26T12:40:46.683Z,99074.75
2017-12-26T12:43:14.263Z,99077.09
2017-12-26T12:45:41.895Z,99070.65
2017-12-26T12:48:09.602Z,99075.92
2017-12-26T12:50:37.183Z,99071.67
2017-12-26T12:53:04.856Z,99073.66
2017-12-26T12:55:32.558Z,99070.78
2017-12-26T12:58:00.191Z,99067.53
2017-12-26T13:00:27.823Z,99071.52
2017-12-26T13:02:55.415Z,99062.59
2017-12-26T13:05:23.343Z,99059.29
2017-12-26T13:07:50.943Z,99055.48
2017-12-26T13:10:18.648Z,99046.55
2017-12-26T13:12:46.308Z,99046.77
2017-12-26T13:15:13.941Z,99045.28
2017-12-26T13:17:41.515Z,99047.08
2017-12-26T13:20:09.120Z,99046.55
2017-12-26T13:22:36.709Z,99049.45
2017-12-26T13:25:04.337Z,99051.45
2017-12-26T13:27:31.941Z,99046.80
2017-12-26T13:29:59.601Z,99052.34
2017-12-26T13:32:27.217Z,99048.43
2017-12-26T13:34:54.783Z,99043.07
2017-12-26T13:37:22.418Z,99047.64
2017-12-26T13:39:49.990Z,99034.23
2017-12-26T13:42:17.671Z,99034.19
2017-12-26T13:44:45.278Z,99036.41
2017-12-26T13:47:12.872Z,99040.98
2017-12-26T13:49:40.648Z,99031.67
2017-12-26T13:52:08.299Z,99028.72
2017-12-26T13:54:35.882Z,99028.62
2017-12-26T13:57:03.467Z,99023.14
2017-12-26T13:59:31.122Z,99017.36
2017-12-26T14:01:58.815Z,99022.05
2017-12-26T14:04:26.440Z,99018.59
2017-12-26T14:06:54.014Z,99021.70
2017-12-26T14:09:21.585Z,99020.46
2017-12-26T14:11:49.154Z,99014.69
2017-12-26T14:14:16.779Z,99018.61
2017-12-26T14:16:44.346Z,99021.97
2017-12-26T14:19:11.922Z,99023.52
2017-12-26T14:21:39.558Z,99025.70
2017-12-26T14:24:07.120Z,99029.06
2017-12-26T14:26:34.778Z,99028.28
2017-12-26T14:29:02.429Z,99025.45
2017-12-26T14:31:30.059Z,99030.19
2017-12-26T14:33:57.699Z,99029.11
2017-12-26T14:36:25.263Z,99032.98
2017-12-26T14:38:52.874Z,99027.27
2017-12-26T14:41:20.479Z,99026.45
2017-12-26T14:43:48.104Z,99020.12
2017-12-26T14:46:15.678Z,99023.95
2017-12-26T14:48:43.249Z,99027.27
2017-12-26T14:51:10.877Z,99017.27
2017-12-26T14:53:38.471Z,99020.56
2017-12-26T14:56:06.034Z,99017.66
2017-12-26T14:58:33.671Z,99019.75
2017-12-26T15:01:01.231Z,99017.73
2017-12-26T15:03:28.933Z,99014.10
2017-12-26T15:05:56.514Z,99010.61
2017-12-26T15:08:24.122Z,99008.48
2017-12-26T15:10:51.717Z,99001.92
2017-12-26T15:13:19.346Z,99005.28
2017-12-26T15:15:47.068Z,99003.04
2017-12-26T15:18:14.685Z,99008.38
2017-12-26T15:20:42.258Z,99017.66
2017-12-26T15:23:09.920Z,99020.34
2017-12-26T15:25:37.496Z,99021.30
2017-12-26T15:28:05.210Z,99020.30
2017-12-26T15:30:32.766Z,99023.45
2017-12-26T15:33:00.495Z,99021.38
2017-12-26T15:35:28.110Z,99025.95
2017-12-26T15:37:55.752Z,99027.92
2017-12-26T15:40:23.426Z,99019.13
2017-12-26T15:42:51.034Z,99020.61
2017-12-26T15:45:18.618Z,99027.50
2017-12-26T15:47:46.201Z,99022.36
2017-12-26T15:50:13.786Z,99025.68
2017-12-26T15:52:41.655Z,99029.18
2017-12-26T15:55:09.254Z,99023.14
2017-12-26T15:57:36.983Z,99022.32
2017-12-26T16:00:04.699Z,99020.16
2017-12-26T16:02:32.338Z,99025.48
2017-12-26T16:05:00.042Z,99024.64
2017-12-26T16:07:27.650Z,99029.21
2017-12-26T16:09:55.262Z,99027.58
2017-12-26T16:12:22.903Z,99032.03
2017-12-26T16:14:50.530Z,99026.63
2017-12-26T16:17:18.389Z,99030.67
2017-12-26T16:19:45.958Z,99033.59
2017-12-26T16:22:13.663Z,99026.95
2017-12-26T16:24:41.274Z,99029.20
2017-12-26T16:27:08.865Z,99027.41
2017-12-26T16:29:36.494Z,99029.95
2017-12-26T16:32:04.106Z,99027.44
2017-12-26T16:34:31.692Z,99022.28
2017-12-26T16:36:59.286Z,99032.08
2017-12-26T16:39:26.879Z,99039.09
2017-12-26T16:41:54.533Z,99043.23
2017-12-26T16:44:22.214Z,99038.11
2017-12-26T16:46:50.040Z,99041.44
2017-12-26T16:49:17.655Z,99034.80
2017-12-26T16:51:45.252Z,99040.83
2017-12-26T16:54:12.887Z,99036.16
2017-12-26T16:56:40.450Z,99034.34
2017-12-26T16:59:08.078Z,99029.70
2017-12-26T17:01:35.747Z,99034.45
2017-12-26T17:04:03.341Z,99031.33
2017-12-26T17:06:30.971Z,99032.73
2017-12-26T17:08:58.550Z,99032.10
2017-12-26T17:11:26.176Z,99029.17
2017-12-26T17:13:53.811Z,99025.92
2017-12-26T17:16:21.395Z,99027.80
2017-12-26T17:18:49.023Z,99024.73
2017-12-26T17:21:16.592Z,99021.20
2017-12-26T17:23:44.158Z,99021.20
2017-12-26T17:26:11.825Z,99021.31
2017-12-26T17:28:39.386Z,99019.08
2017-12-26T17:31:07.362Z,99021.44
2017-12-26T17:33:35.180Z,99027.77
2017-12-26T17:36:02.835Z,99028.83
2017-12-26T17:38:30.410Z,99031.38
2017-12-26T17:40:58.035Z,99025.42
2017-12-26T17:43:25.729Z,99028.88
2017-12-26T17:45:53.317Z,99025.42
2017-12-26T17:48:20.965Z,99027.29
2017-12-26T17:50:48.600Z,99026.06
2017-12-26T17:53:16.169Z,99020.10
2017-12-26T17:55:43.834Z,99015.83
2017-12-26T17:58:11.416Z,99021.16
2017-12-26T18:00:38.999Z,99019.37
2017-12-26T18:03:06.585Z,99022.88
2017-12-26T18:05:34.206Z,99018.69
2017-12-26T18:08:01.915Z,99010.03
2017-12-26T18:10:29.514Z,99016.85
2017-12-26T18:12:57.079Z,99007.47
2017-12-26T18:15:24.836Z,99010.96
2017-12-26T18:17:52.382Z,99006.05
2017-12-26T18:20:20.116Z,99004.27
2017-12-26T18:22:47.681Z,99004.27
2017-12-26T18:25:15.239Z,99007.39
2017-12-26T18:27:42.811Z,98997.39
2017-12-26T18:30:10.491Z,99002.26
2017-12-26T18:32:38.112Z,99002.22
2017-12-26T18:35:05.670Z,99000.88
2017-12-26T18:37:33.245Z,98996.70
2017-12-26T18:40:00.891Z,98992.55
2017-12-26T18:42:28.454Z,98991.38
2017-12-26T18:44:56.241Z,98992.02
2017-12-26T18:47:23.854Z,98990.27
2017-12-26T18:49:51.470Z,98996.05
2017-12-26T18:52:19.147Z,98981.82
2017-12-26T18:54:46.714Z,98992.16
2017-12-26T18:57:14.454Z,98989.58
2017-12-26T18:59:42.077Z,98988.56
2017-12-26T19:02:09.638Z,98984.30
2017-12-26T19:04:37.285Z,98985.02
2017-12-26T19:07:04.869Z,98988.20
2017-12-26T19:09:32.443Z,98987.23
2017-12-26T19:12:00.075Z,98975.41
2017-12-26T19:14:27.650Z,98978.80
2017-12-26T19:16:55.332Z,98979.13
2017-12-26T19:19:22.910Z,98973.59
2017-12-26T19:21:50.491Z,98980.13
2017-12-26T19:24:18.055Z,98980.02
2017-12-26T19:26:45.803Z,98974.69
2017-12-26T19:29:13.618Z,98980.13
2017-12-26T19:31:41.340Z,98983.89
2017-12-26T19:34:08.977Z,98984.12
2017-12-26T19:36:36.549Z,98986.73
2017-12-26T19:39:04.179Z,98992.41
2017-12-26T19:41:31.807Z,98994.83
2017-12-26T19:43:59.491Z,98989.47
2017-12-26T19:46:27.045Z,98996.13
2017-12-26T19:48:54.633Z,98991.64
2017-12-26T19:51:22.269Z,98985.67
2017-12-26T19:53:49.900Z,98987.71
2017-12-26T19:56:17.491Z,98992.00
2017-12-26T19:58:45.059Z,98989.81
2017-12-26T20:01:12.630Z,98990.52
2017-12-26T20:03:40.476Z,98993.66
2017-12-26T20:06:08.034Z,98986.25
2017-12-26T20:08:35.595Z,98987.50
2017-12-26T20:11:03.177Z,98986.91
2017-12-26T20:13:30.755Z,98986.00
2017-12-26T20:15:58.326Z,98981.82
2017-12-26T20:18:25.914Z,98980.13
2017-12-26T20:20:53.482Z,98985.28
2017-12-26T20:23:21.037Z,98981.93
2017-12-26T20:25:48.752Z,98979.36
2017-12-26T20:28:21.983Z,98979.18
2017-12-26T20:30:49.578Z,98980.16
2017-12-26T20:33:17.136Z,98980.16
2017-12-26T20:35:44.702Z,98984.96
2017-12-26T20:38:12.282Z,98982.17
2017-12-26T20:40:40.059Z,98980.46
2017-12-26T20:43:07.777Z,98984.64
2017-12-26T20:45:35.598Z,98984.48
2017-12-26T20:48:03.194Z,98981.99
2017-12-26T20:50:30.932Z,98979.31
2017-12-26T20:52:58.751Z,98978.92
2017-12-26T20:55:26.569Z,98978.58
2017-12-26T20:57:54.380Z,98977.70
2017-12-26T21:00:21.947Z,98977.47
2017-12-26T21:02:49.614Z,98978.50
2017-12-26T21:05:19.248Z,98973.84
2017-12-26T21:07:46.814Z,98972.87
2017-12-26T21:10:14.465Z,98978.05
2017-12-26T21:12:42.038Z,98971.80
2017-12-26T21:15:09.602Z,98971.61
2017-12-26T21:17:37.198Z,98966.08
2017-12-26T21:20:04.955Z,98966.53
2017-12-26T21:22:32.582Z,98970.84
2017-12-26T21:25:00.392Z,98972.13
2017-12-26T21:27:27.966Z,98969.77
2017-12-26T21:29:55.547Z,98972.58
2017-12-26T21:32:23.345Z,98976.02
2017-12-26T21:34:51.164Z,98967.03
2017-12-26T21:37:18.725Z,98960.86
2017-12-26T21:39:46.286Z,98970.27
2017-12-26T21:42:13.845Z,98969.09
2017-12-26T21:44:41.405Z,98972.82
2017-12-26T21:47:09.093Z,98977.14
2017-12-26T21:49:36.701Z,98979.36
2017-12-26T21:52:04.861Z,98979.10
2017-12-26T21:54:32.580Z,98980.13
2017-12-26T21:57:00.146Z,98957.69
2017-12-26T21:59:27.945Z,98978.53
2017-12-26T22:01:55.549Z,98976.92
2017-12-26T22:04:23.115Z,98970.95
2017-12-26T22:06:50.899Z,98968.89
2017-12-26T22:09:18.519Z,98963.61
2017-12-26T22:11:46.133Z,98960.89
2017-12-26T22:14:13.852Z,98965.59
2017-12-26T22:16:41.450Z,98961.12
2017-12-26T22:19:09.034Z,98965.20
2017-12-26T22:21:36.697Z,98956.30
2017-12-26T22:24:04.355Z,98960.83
2017-12-26T22:26:32.115Z,98947.61
2017-12-26T22:28:59.751Z,98951.72
2017-12-26T22:31:27.318Z,98950.08
2017-12-26T22:33:54.877Z,98951.52
2017-12-26T22:36:22.552Z,98949.06
2017-12-26T22:38:50.295Z,98947.84
2017-12-26T22:41:18.012Z,98949.22
2017-12-26T22:43:45.728Z,98949.55
2017-12-26T22:46:13.445Z,98943.21
2017-12-26T22:48:41.066Z,98943.30
2017-12-26T22:51:08.629Z,98951.47
2017-12-26T22:53:36.277Z,98946.42
2017-12-26T22:56:03.853Z,98939.39
2017-12-26T22:58:31.676Z,98940.83
2017-12-26T23:00:59.293Z,98943.52
2017-12-26T23:03:27.113Z,98942.59
2017-12-26T23:05:54.682Z,98938.56
2017-12-26T23:08:22.261Z,98937.09
2017-12-26T23:10:49.830Z,98936.97
2017-12-26T23:13:17.445Z,98937.60
2017-12-26T23:15:50.455Z,98940.68
2017-12-26T23:18:21.053Z,98942.39
2017-12-26T23:20:54.177Z,98943.69
2017-12-26T23:23:27.364Z,98940.19
2017-12-26T23:26:00.529Z,98943.33
2017-12-26T23:28:33.822Z,98941.45
2017-12-26T23:31:06.876Z,98936.45
2017-12-26T23:36:44.290Z,98932.25
2017-12-26T23:39:17.386Z,98921.47
2017-12-26T23:41:50.594Z,98922.73
2017-12-26T23:44:23.668Z,98922.55
2017-12-26T23:46:56.887Z,98922.09
2017-12-26T23:49:30.118Z,98920.43
2017-12-26T23:52:03.310Z,98923.20
2017-12-26T23:54:36.429Z,98922.42
2017-12-26T23:57:09.566Z,98921.64
2017-12-26T23:59:42.757Z,98920.69
